sensor_id;sensor_type;location;lat;lon;timestamp;pressure;altitude;pressure_sealevel;temperature;humidity
39141;BME280;24875;48.436;10.298;2023-04-20T07:39:17;95928.91;;;6.37;100.00
39141;BME280;24875;48.436;10.298;2023-04-20T07:41:43;95918.69;;;6.10;100.00
39141;BME280;24875;48.436;10.298;2023-04-20T07:44:11;95918.50;;;6.04;100.00
39141;BME280;24875;48.436;10.298;2023-04-20T07:46:38;95920.75;;;5.99;100.00
39141;BME280;24875;48.436;10.298;2023-04-20T07:49:04;95925.97;;;5.73;100.00
39141;BME280;24875;48.436;10.298;2023-04-20T07:51:31;95921.53;;;5.91;100.00
39141;BME280;24875;48.436;10.298;2023-04-20T07:53:58;95929.28;;;5.75;100.00
39141;BME280;24875;48.436;10.298;2023-04-20T07:56:26;95925.47;;;5.70;100.00
39141;BME280;24875;48.436;10.298;2023-04-20T07:58:52;95932.47;;;5.61;100.00
39141;BME280;24875;48.436;10.298;2023-04-20T08:01:22;95928.66;;;5.81;100.00
39141;BME280;24875;48.436;10.298;2023-04-20T08:03:48;95930.50;;;5.89;100.00
39141;BME280;24875;48.436;10.298;2023-04-20T08:06:15;95933.22;;;5.54;100.00
39141;BME280;24875;48.436;10.298;2023-04-20T08:08:41;95936.00;;;5.52;100.00
39141;BME280;24875;48.436;10.298;2023-04-20T08:11:08;95935.13;;;5.69;100.00
39141;BME280;24875;48.436;10.298;2023-04-20T08:13:36;95928.84;;;5.62;100.00
39141;BME280;24875;48.436;10.298;2023-04-20T08:16:02;95931.72;;;5.51;100.00
39141;BME280;24875;48.436;10.298;2023-04-20T08:18:29;95924.56;;;5.79;100.00
39141;BME280;24875;48.436;10.298;2023-04-20T08:20:55;95926.72;;;5.83;100.00
39141;BME280;24875;48.436;10.298;2023-04-20T08:23:22;95930.44;;;6.06;100.00
39141;BME280;24875;48.436;10.298;2023-04-20T08:25:52;95919.16;;;6.13;100.00
39141;BME280;24875;48.436;10.298;2023-04-20T08:28:18;95917.28;;;5.90;100.00
39141;BME280;24875;48.436;10.298;2023-04-20T08:30:46;95910.84;;;6.10;100.00
39141;BME280;24875;48.436;10.298;2023-04-20T08:33:13;95907.78;;;6.22;100.00
39141;BME280;24875;48.436;10.298;2023-04-20T08:35:39;95917.25;;;6.23;100.00
39141;BME280;24875;48.436;10.298;2023-04-20T08:38:05;95916.97;;;6.34;100.00
39141;BME280;24875;48.436;10.298;2023-04-20T08:40:33;95920.22;;;6.36;100.00
39141;BME280;24875;48.436;10.298;2023-04-20T08:43:01;95916.28;;;6.32;100.00
39141;BME280;24875;48.436;10.298;2023-04-20T08:45:28;95913.75;;;6.56;100.00
39141;BME280;24875;48.436;10.298;2023-04-20T08:47:56;95914.41;;;6.58;100.00
39141;BME280;24875;48.436;10.298;2023-04-20T08:50:23;95907.47;;;6.41;100.00
39141;BME280;24875;48.436;10.298;2023-04-20T08:52:50;95907.19;;;6.44;100.00
39141;BME280;24875;48.436;10.298;2023-04-20T08:55:16;95904.41;;;6.62;100.00
39141;BME280;24875;48.436;10.298;2023-04-20T08:57:43;95902.94;;;6.51;100.00
39141;BME280;24875;48.436;10.298;2023-04-20T09:00:11;95902.59;;;6.54;100.00
39141;BME280;24875;48.436;10.298;2023-04-20T09:02:47;95903.78;;;6.67;100.00
39141;BME280;24875;48.436;10.298;2023-04-20T09:05:23;95894.16;;;6.84;100.00
39141;BME280;24875;48.436;10.298;2023-04-20T09:07:50;95895.47;;;6.88;100.00
39141;BME280;24875;48.436;10.298;2023-04-20T09:10:17;95894.16;;;6.84;100.00
39141;BME280;24875;48.436;10.298;2023-04-20T09:12:44;95886.94;;;7.18;100.00
39141;BME280;24875;48.436;10.298;2023-04-20T09:15:10;95880.06;;;7.09;100.00
39141;BME280;24875;48.436;10.298;2023-04-20T09:17:48;95875.50;;;7.11;100.00
39141;BME280;24875;48.436;10.298;2023-04-20T09:20:26;95878.59;;;6.98;100.00
39141;BME280;24875;48.436;10.298;2023-04-20T09:22:52;95878.75;;;6.97;100.00
39141;BME280;24875;48.436;10.298;2023-04-20T09:25:19;95878.13;;;7.03;100.00
39141;BME280;24875;48.436;10.298;2023-04-20T09:27:54;95882.69;;;7.09;100.00
39141;BME280;24875;48.436;10.298;2023-04-20T09:30:20;95891.19;;;6.95;100.00
39141;BME280;24875;48.436;10.298;2023-04-20T09:32:47;95890.06;;;7.05;100.00
39141;BME280;24875;48.436;10.298;2023-04-20T09:35:22;95876.59;;;7.24;100.00
39141;BME280;24875;48.436;10.298;2023-04-20T09:37:49;95860.53;;;7.43;100.00
39141;BME280;24875;48.436;10.298;2023-04-20T09:40:16;95860.03;;;7.39;100.00
39141;BME280;24875;48.436;10.298;2023-04-20T09:42:43;95854.50;;;7.26;100.00
39141;BME280;24875;48.436;10.298;2023-04-20T09:45:12;95842.56;;;7.16;100.00
39141;BME280;24875;48.436;10.298;2023-04-20T09:47:40;95837.47;;;7.23;100.00
39141;BME280;24875;48.436;10.298;2023-04-20T09:50:10;95825.97;;;7.47;100.00
39141;BME280;24875;48.436;10.298;2023-04-20T09:52:38;95810.69;;;7.51;100.00
39141;BME280;24875;48.436;10.298;2023-04-20T09:55:06;95802.63;;;7.68;100.00
39141;BME280;24875;48.436;10.298;2023-04-20T09:57:33;95806.22;;;7.67;100.00
39141;BME280;24875;48.436;10.298;2023-04-20T10:00:01;95819.38;;;7.59;100.00
39141;BME280;24875;48.436;10.298;2023-04-20T10:02:29;95814.97;;;7.52;100.00
39141;BME280;24875;48.436;10.298;2023-04-20T10:04:57;95814.88;;;7.22;100.00
39141;BME280;24875;48.436;10.298;2023-04-20T10:07:24;95823.53;;;7.30;100.00
39141;BME280;24875;48.436;10.298;2023-04-20T10:10:03;95845.31;;;7.46;100.00
39141;BME280;24875;48.436;10.298;2023-04-20T10:12:30;95847.56;;;7.49;100.00
39141;BME280;24875;48.436;10.298;2023-04-20T10:14:57;95849.53;;;7.55;100.00
39141;BME280;24875;48.436;10.298;2023-04-20T10:17:28;95846.72;;;7.73;100.00
39141;BME280;24875;48.436;10.298;2023-04-20T10:19:55;95842.03;;;7.52;100.00
39141;BME280;24875;48.436;10.298;2023-04-20T10:22:27;95841.31;;;7.58;100.00
39141;BME280;24875;48.436;10.298;2023-04-20T10:24:57;95852.97;;;7.64;100.00
39141;BME280;24875;48.436;10.298;2023-04-20T10:27:25;95852.19;;;7.47;100.00
39141;BME280;24875;48.436;10.298;2023-04-20T10:29:52;95854.50;;;7.42;100.00
39141;BME280;24875;48.436;10.298;2023-04-20T10:32:22;95855.78;;;7.46;100.00
39141;BME280;24875;48.436;10.298;2023-04-20T10:35:00;95859.88;;;7.49;100.00
39141;BME280;24875;48.436;10.298;2023-04-20T10:37:26;95859.41;;;7.22;100.00
39141;BME280;24875;48.436;10.298;2023-04-20T10:39:53;95851.91;;;7.19;100.00
39141;BME280;24875;48.436;10.298;2023-04-20T10:42:19;95855.19;;;7.21;100.00
39141;BME280;24875;48.436;10.298;2023-04-20T10:44:47;95857.13;;;7.19;100.00
39141;BME280;24875;48.436;10.298;2023-04-20T10:47:14;95856.50;;;7.17;100.00
39141;BME280;24875;48.436;10.298;2023-04-20T10:49:40;95860.88;;;7.24;100.00
39141;BME280;24875;48.436;10.298;2023-04-20T10:52:07;95858.78;;;7.04;100.00
39141;BME280;24875;48.436;10.298;2023-04-20T10:54:35;95862.03;;;7.22;100.00
39141;BME280;24875;48.436;10.298;2023-04-20T10:57:04;95848.00;;;7.07;100.00
39141;BME280;24875;48.436;10.298;2023-04-20T10:59:31;95844.41;;;7.08;100.00
39141;BME280;24875;48.436;10.298;2023-04-20T11:02:00;95842.09;;;7.05;100.00
39141;BME280;24875;48.436;10.298;2023-04-20T11:04:30;95845.16;;;7.24;100.00
39141;BME280;24875;48.436;10.298;2023-04-20T11:07:03;95838.78;;;7.26;100.00
39141;BME280;24875;48.436;10.298;2023-04-20T11:09:31;95842.59;;;7.08;100.00
39141;BME280;24875;48.436;10.298;2023-04-20T11:11:59;95839.47;;;7.05;100.00
39141;BME280;24875;48.436;10.298;2023-04-20T11:14:26;95836.84;;;7.05;100.00
39141;BME280;24875;48.436;10.298;2023-04-20T11:16:53;95832.59;;;7.04;100.00
39141;BME280;24875;48.436;10.298;2023-04-20T11:19:26;95828.69;;;7.08;100.00
39141;BME280;24875;48.436;10.298;2023-04-20T11:21:53;95813.75;;;7.08;100.00
39141;BME280;24875;48.436;10.298;2023-04-20T11:24:21;95824.09;;;7.02;100.00
39141;BME280;24875;48.436;10.298;2023-04-20T11:26:48;95816.03;;;7.19;100.00
39141;BME280;24875;48.436;10.298;2023-04-20T11:29:29;95799.00;;;7.15;100.00
39141;BME280;24875;48.436;10.298;2023-04-20T11:31:56;95806.41;;;7.12;100.00
39141;BME280;24875;48.436;10.298;2023-04-20T11:34:22;95807.38;;;6.95;100.00
39141;BME280;24875;48.436;10.298;2023-04-20T11:36:51;95806.09;;;6.99;100.00
39141;BME280;24875;48.436;10.298;2023-04-20T11:39:23;95800.31;;;7.19;100.00
39141;BME280;24875;48.436;10.298;2023-04-20T11:41:50;95806.06;;;7.07;100.00
39141;BME280;24875;48.436;10.298;2023-04-20T11:44:17;95812.28;;;7.14;100.00
39141;BME280;24875;48.436;10.298;2023-04-20T11:46:45;95813.44;;;7.03;100.00
39141;BME280;24875;48.436;10.298;2023-04-20T11:49:13;95811.63;;;7.12;100.00
39141;BME280;24875;48.436;10.298;2023-04-20T11:51:39;95822.94;;;7.12;100.00
39141;BME280;24875;48.436;10.298;2023-04-20T11:54:07;95818.81;;;7.18;100.00
39141;BME280;24875;48.436;10.298;2023-04-20T11:56:33;95833.09;;;6.91;100.00
39141;BME280;24875;48.436;10.298;2023-04-20T11:59:01;95828.19;;;6.88;100.00
39141;BME280;24875;48.436;10.298;2023-04-20T12:01:28;95821.09;;;7.13;100.00
39141;BME280;24875;48.436;10.298;2023-04-20T12:03:54;95826.06;;;7.08;100.00
39141;BME280;24875;48.436;10.298;2023-04-20T12:06:20;95825.72;;;7.11;100.00
39141;BME280;24875;48.436;10.298;2023-04-20T12:08:47;95815.22;;;7.19;100.00
39141;BME280;24875;48.436;10.298;2023-04-20T12:11:15;95814.91;;;7.14;100.00
39141;BME280;24875;48.436;10.298;2023-04-20T12:13:41;95822.13;;;7.12;100.00
39141;BME280;24875;48.436;10.298;2023-04-20T12:16:08;95827.72;;;6.85;100.00
39141;BME280;24875;48.436;10.298;2023-04-20T12:18:34;95831.59;;;6.81;100.00
39141;BME280;24875;48.436;10.298;2023-04-20T12:21:01;95819.34;;;6.89;100.00
39141;BME280;24875;48.436;10.298;2023-04-20T12:23:27;95823.44;;;6.84;100.00
39141;BME280;24875;48.436;10.298;2023-04-20T12:25:53;95820.16;;;6.82;100.00
39141;BME280;24875;48.436;10.298;2023-04-20T12:28:21;95822.75;;;7.14;100.00
39141;BME280;24875;48.436;10.298;2023-04-20T12:30:48;95809.34;;;7.09;100.00
39141;BME280;24875;48.436;10.298;2023-04-20T12:33:14;95808.50;;;7.16;100.00
39141;BME280;24875;48.436;10.298;2023-04-20T12:35:41;95811.91;;;7.32;100.00
39141;BME280;24875;48.436;10.298;2023-04-20T12:38:09;95819.44;;;7.27;100.00
39141;BME280;24875;48.436;10.298;2023-04-20T12:40:35;95826.81;;;7.24;100.00
39141;BME280;24875;48.436;10.298;2023-04-20T12:43:02;95829.47;;;6.92;100.00
39141;BME280;24875;48.436;10.298;2023-04-20T12:45:30;95824.75;;;6.96;100.00
39141;BME280;24875;48.436;10.298;2023-04-20T12:47:56;95821.16;;;6.97;100.00
39141;BME280;24875;48.436;10.298;2023-04-20T12:50:23;95815.41;;;7.01;100.00
39141;BME280;24875;48.436;10.298;2023-04-20T12:52:50;95811.50;;;7.05;100.00
39141;BME280;24875;48.436;10.298;2023-04-20T12:55:17;95814.75;;;7.07;100.00
39141;BME280;24875;48.436;10.298;2023-04-20T12:57:43;95804.25;;;7.15;100.00
39141;BME280;24875;48.436;10.298;2023-04-20T13:00:11;95806.25;;;6.89;100.00
39141;BME280;24875;48.436;10.298;2023-04-20T13:02:39;95800.47;;;7.18;100.00
39141;BME280;24875;48.436;10.298;2023-04-20T13:05:06;95790.00;;;7.26;100.00
39141;BME280;24875;48.436;10.298;2023-04-20T13:07:32;95794.53;;;7.31;100.00
39141;BME280;24875;48.436;10.298;2023-04-20T13:09:59;95799.97;;;7.30;100.00
39141;BME280;24875;48.436;10.298;2023-04-20T13:12:26;95801.13;;;7.20;100.00
39141;BME280;24875;48.436;10.298;2023-04-20T13:14:52;95798.84;;;7.17;100.00
39141;BME280;24875;48.436;10.298;2023-04-20T13:17:18;95799.50;;;7.19;100.00
39141;BME280;24875;48.436;10.298;2023-04-20T13:19:47;95790.94;;;7.32;100.00
39141;BME280;24875;48.436;10.298;2023-04-20T13:22:14;95804.09;;;7.17;100.00
39141;BME280;24875;48.436;10.298;2023-04-20T13:24:41;95796.56;;;7.14;100.00
39141;BME280;24875;48.436;10.298;2023-04-20T13:27:08;95800.78;;;7.23;100.00
39141;BME280;24875;48.436;10.298;2023-04-20T13:29:35;95801.56;;;7.39;100.00
39141;BME280;24875;48.436;10.298;2023-04-20T13:32:02;95798.13;;;7.46;100.00
39141;BME280;24875;48.436;10.298;2023-04-20T13:34:29;95795.84;;;7.35;100.00
39141;BME280;24875;48.436;10.298;2023-04-20T13:36:57;95796.81;;;7.42;100.00
39141;BME280;24875;48.436;10.298;2023-04-20T13:39:23;95800.41;;;7.41;100.00
39141;BME280;24875;48.436;10.298;2023-04-20T13:41:52;95794.53;;;7.39;100.00
39141;BME280;24875;48.436;10.298;2023-04-20T13:44:18;95793.50;;;7.56;100.00
39141;BME280;24875;48.436;10.298;2023-04-20T13:46:45;95789.56;;;7.60;100.00
39141;BME280;24875;48.436;10.298;2023-04-20T13:49:12;95788.19;;;7.72;100.00
39141;BME280;24875;48.436;10.298;2023-04-20T13:51:41;95793.69;;;7.47;100.00
39141;BME280;24875;48.436;10.298;2023-04-20T13:54:09;95789.72;;;7.51;100.00
39141;BME280;24875;48.436;10.298;2023-04-20T13:56:35;95786.13;;;7.52;100.00
39141;BME280;24875;48.436;10.298;2023-04-20T13:59:02;95790.69;;;7.58;100.00
39141;BME280;24875;48.436;10.298;2023-04-20T14:01:29;95783.66;;;7.58;100.00
39141;BME280;24875;48.436;10.298;2023-04-20T14:03:55;95793.00;;;7.53;100.00
39141;BME280;24875;48.436;10.298;2023-04-20T14:06:22;95792.34;;;7.59;100.00
39141;BME280;24875;48.436;10.298;2023-04-20T14:08:49;95784.03;;;7.47;100.00
39141;BME280;24875;48.436;10.298;2023-04-20T14:11:16;95788.88;;;7.58;100.00
39141;BME280;24875;48.436;10.298;2023-04-20T14:13:43;95784.66;;;7.49;100.00
39141;BME280;24875;48.436;10.298;2023-04-20T14:16:10;95777.16;;;7.46;100.00
39141;BME280;24875;48.436;10.298;2023-04-20T14:18:38;95777.94;;;7.47;100.00
39141;BME280;24875;48.436;10.298;2023-04-20T14:21:05;95776.38;;;7.30;100.00
39141;BME280;24875;48.436;10.298;2023-04-20T14:23:31;95783.41;;;7.37;100.00
39141;BME280;24875;48.436;10.298;2023-04-20T14:25:58;95780.72;;;7.61;100.00
39141;BME280;24875;48.436;10.298;2023-04-20T14:28:26;95789.16;;;7.71;100.00
39141;BME280;24875;48.436;10.298;2023-04-20T14:30:52;95789.16;;;7.71;100.00
39141;BME280;24875;48.436;10.298;2023-04-20T14:33:19;95796.50;;;7.84;100.00
39141;BME280;24875;48.436;10.298;2023-04-20T14:35:45;95798.63;;;7.80;100.00
39141;BME280;24875;48.436;10.298;2023-04-20T14:38:12;95800.03;;;7.60;100.00
39141;BME280;24875;48.436;10.298;2023-04-20T14:40:38;95798.66;;;7.72;100.00
39141;BME280;24875;48.436;10.298;2023-04-20T14:43:05;95802.75;;;7.75;100.00
39141;BME280;24875;48.436;10.298;2023-04-20T14:45:33;95812.09;;;7.77;100.00
39141;BME280;24875;48.436;10.298;2023-04-20T14:47:59;95816.66;;;7.83;100.00
39141;BME280;24875;48.436;10.298;2023-04-20T14:50:26;95816.66;;;7.83;100.00
39141;BME280;24875;48.436;10.298;2023-04-20T14:52:53;95818.94;;;7.86;100.00
39141;BME280;24875;48.436;10.298;2023-04-20T14:55:20;95817.88;;;8.03;100.00
39141;BME280;24875;48.436;10.298;2023-04-20T14:57:49;95821.78;;;8.07;100.00
39141;BME280;24875;48.436;10.298;2023-04-20T15:00:16;95819.63;;;8.10;100.00
39141;BME280;24875;48.436;10.298;2023-04-20T15:02:44;95826.88;;;8.08;100.00
39141;BME280;24875;48.436;10.298;2023-04-20T15:05:11;95816.88;;;8.04;100.00
39141;BME280;24875;48.436;10.298;2023-04-20T15:07:37;95816.06;;;8.03;100.00
39141;BME280;24875;48.436;10.298;2023-04-20T15:10:04;95816.56;;;7.99;100.00
39141;BME280;24875;48.436;10.298;2023-04-20T15:12:30;95812.97;;;8.00;100.00
39141;BME280;24875;48.436;10.298;2023-04-20T15:14:57;95821.19;;;7.97;100.00
39141;BME280;24875;48.436;10.298;2023-04-20T15:17:23;95827.38;;;8.04;100.00
39141;BME280;24875;48.436;10.298;2023-04-20T15:19:51;95821.53;;;7.94;100.00
39141;BME280;24875;48.436;10.298;2023-04-20T15:22:18;95816.19;;;7.80;100.00
39141;BME280;24875;48.436;10.298;2023-04-20T15:24:44;95818.75;;;7.87;100.00
39141;BME280;24875;48.436;10.298;2023-04-20T15:27:11;95816.66;;;7.83;100.00
39141;BME280;24875;48.436;10.298;2023-04-20T15:29:37;95815.34;;;7.87;100.00
39141;BME280;24875;48.436;10.298;2023-04-20T15:32:04;95811.97;;;7.71;100.00
39141;BME280;24875;48.436;10.298;2023-04-20T15:34:30;95803.59;;;7.75;100.00
39141;BME280;24875;48.436;10.298;2023-04-20T15:36:58;95812.84;;;7.93;100.00
39141;BME280;24875;48.436;10.298;2023-04-20T15:39:25;95817.13;;;7.86;100.00
39141;BME280;24875;48.436;10.298;2023-04-20T15:41:51;95811.47;;;7.75;100.00
39141;BME280;24875;48.436;10.298;2023-04-20T15:44:18;95811.88;;;7.94;100.00
39141;BME280;24875;48.436;10.298;2023-04-20T15:46:44;95818.34;;;7.68;100.00
39141;BME280;24875;48.436;10.298;2023-04-20T15:49:11;95818.91;;;7.94;100.00
39141;BME280;24875;48.436;10.298;2023-04-20T15:51:37;95814.09;;;7.75;100.00
39141;BME280;24875;48.436;10.298;2023-04-20T15:54:05;95816.31;;;7.86;100.00
39141;BME280;24875;48.436;10.298;2023-04-20T15:56:31;95801.09;;;7.82;100.00
39141;BME280;24875;48.436;10.298;2023-04-20T15:58:58;95786.53;;;7.71;100.00
39141;BME280;24875;48.436;10.298;2023-04-20T16:01:24;95788.19;;;7.72;100.00
39141;BME280;24875;48.436;10.298;2023-04-20T16:03:51;95776.75;;;7.65;100.00
39141;BME280;24875;48.436;10.298;2023-04-20T16:06:17;95786.94;;;7.60;100.00
39141;BME280;24875;48.436;10.298;2023-04-20T16:08:44;95788.84;;;7.74;100.00
39141;BME280;24875;48.436;10.298;2023-04-20T16:11:14;95792.44;;;7.73;100.00
39141;BME280;24875;48.436;10.298;2023-04-20T16:13:41;95796.75;;;7.66;100.00
39141;BME280;24875;48.436;10.298;2023-04-20T16:16:07;95789.16;;;7.79;100.00
39141;BME280;24875;48.436;10.298;2023-04-20T16:18:34;95793.78;;;7.69;100.00
39141;BME280;24875;48.436;10.298;2023-04-20T16:21:00;95799.28;;;7.82;100.00
39141;BME280;24875;48.436;10.298;2023-04-20T16:23:27;95803.91;;;7.72;100.00
39141;BME280;24875;48.436;10.298;2023-04-20T16:25:53;95803.50;;;7.91;100.00
39141;BME280;24875;48.436;10.298;2023-04-20T16:28:21;95805.31;;;7.90;100.00
39141;BME280;24875;48.436;10.298;2023-04-20T16:30:48;95800.72;;;7.92;100.00
39141;BME280;24875;48.436;10.298;2023-04-20T16:33:14;95781.88;;;7.89;100.00
39141;BME280;24875;48.436;10.298;2023-04-20T16:35:41;95773.66;;;7.92;100.00
39141;BME280;24875;48.436;10.298;2023-04-20T16:38:07;95769.22;;;7.92;100.00
39141;BME280;24875;48.436;10.298;2023-04-20T16:40:35;95766.44;;;7.94;100.00
39141;BME280;24875;48.436;10.298;2023-04-20T16:43:01;95764.09;;;7.99;100.00
39141;BME280;24875;48.436;10.298;2023-04-20T16:45:31;95767.09;;;7.96;100.00
39141;BME280;24875;48.436;10.298;2023-04-20T16:47:57;95769.50;;;7.75;100.00
39141;BME280;24875;48.436;10.298;2023-04-20T16:50:25;95784.16;;;7.92;100.00
39141;BME280;24875;48.436;10.298;2023-04-20T16:52:51;95788.44;;;7.93;100.00
39141;BME280;24875;48.436;10.298;2023-04-20T16:55:18;95782.34;;;7.92;100.00
39141;BME280;24875;48.436;10.298;2023-04-20T16:57:45;95774.91;;;7.74;100.00
39141;BME280;24875;48.436;10.298;2023-04-20T17:00:12;95772.78;;;7.69;100.00
39141;BME280;24875;48.436;10.298;2023-04-20T17:02:40;95782.75;;;7.82;100.00
39141;BME280;24875;48.436;10.298;2023-04-20T17:05:07;95779.78;;;7.85;100.00
39141;BME280;24875;48.436;10.298;2023-04-20T17:07:34;95785.50;;;7.80;100.00
39141;BME280;24875;48.436;10.298;2023-04-20T17:10:01;95791.50;;;7.66;100.00
39141;BME280;24875;48.436;10.298;2023-04-20T17:12:28;95808.28;;;7.87;100.00
39141;BME280;24875;48.436;10.298;2023-04-20T17:14:55;95816.34;;;7.78;100.00
39141;BME280;24875;48.436;10.298;2023-04-20T17:17:21;95827.13;;;7.91;100.00
39141;BME280;24875;48.436;10.298;2023-04-20T17:19:50;95829.06;;;7.97;100.00
39141;BME280;24875;48.436;10.298;2023-04-20T17:22:17;95834.81;;;7.92;100.00
39141;BME280;24875;48.436;10.298;2023-04-20T17:24:43;95835.78;;;7.99;100.00
39141;BME280;24875;48.436;10.298;2023-04-20T17:27:10;95830.69;;;7.98;100.00
39141;BME280;24875;48.436;10.298;2023-04-20T17:29:37;95831.16;;;8.01;100.00
39141;BME280;24875;48.436;10.298;2023-04-20T17:32:04;95848.53;;;8.02;100.00
39141;BME280;24875;48.436;10.298;2023-04-20T17:34:30;95852.94;;;8.10;100.00
39141;BME280;24875;48.436;10.298;2023-04-20T17:36:58;95854.09;;;8.07;100.00
39141;BME280;24875;48.436;10.298;2023-04-20T17:39:25;95859.84;;;8.03;100.00
39141;BME280;24875;48.436;10.298;2023-04-20T17:41:51;95860.19;;;8.00;100.00
39141;BME280;24875;48.436;10.298;2023-04-20T17:44:18;95866.75;;;8.04;100.00
39141;BME280;24875;48.436;10.298;2023-04-20T17:46:44;95867.94;;;7.93;100.00
39141;BME280;24875;48.436;10.298;2023-04-20T17:49:11;95875.31;;;7.90;100.00
39141;BME280;24875;48.436;10.298;2023-04-20T17:51:37;95872.03;;;7.96;100.00
39141;BME280;24875;48.436;10.298;2023-04-20T17:54:05;95868.44;;;7.89;100.00
39141;BME280;24875;48.436;10.298;2023-04-20T17:56:32;95871.72;;;7.91;100.00
39141;BME280;24875;48.436;10.298;2023-04-20T17:58:58;95876.59;;;7.94;100.00
39141;BME280;24875;48.436;10.298;2023-04-20T18:01:25;95876.16;;;7.90;100.00
39141;BME280;24875;48.436;10.298;2023-04-20T18:03:52;95877.00;;;7.83;100.00
39141;BME280;24875;48.436;10.298;2023-04-20T18:06:18;95882.25;;;7.83;100.00
39141;BME280;24875;48.436;10.298;2023-04-20T18:08:45;95889.47;;;7.73;100.00
39141;BME280;24875;48.436;10.298;2023-04-20T18:11:12;95887.84;;;7.72;100.00
39141;BME280;24875;48.436;10.298;2023-04-20T18:13:39;95887.16;;;7.78;100.00
39141;BME280;24875;48.436;10.298;2023-04-20T18:16:06;95895.66;;;7.80;100.00
39141;BME280;24875;48.436;10.298;2023-04-20T18:18:33;95896.66;;;7.87;100.00
39141;BME280;24875;48.436;10.298;2023-04-20T18:21:00;95903.22;;;7.83;100.00
39141;BME280;24875;48.436;10.298;2023-04-20T18:23:28;95904.19;;;7.82;100.00
39141;BME280;24875;48.436;10.298;2023-04-20T18:25:54;95910.09;;;7.76;100.00
39141;BME280;24875;48.436;10.298;2023-04-20T18:28:23;95910.94;;;7.77;100.00
39141;BME280;24875;48.436;10.298;2023-04-20T18:30:49;95913.56;;;7.69;100.00
39141;BME280;24875;48.436;10.298;2023-04-20T18:33:16;95904.41;;;7.73;100.00
39141;BME280;24875;48.436;10.298;2023-04-20T18:35:43;95901.59;;;7.74;100.00
39141;BME280;24875;48.436;10.298;2023-04-20T18:38:10;95897.81;;;7.69;100.00
39141;BME280;24875;48.436;10.298;2023-04-20T18:40:36;95904.06;;;7.60;100.00
39141;BME280;24875;48.436;10.298;2023-04-20T18:43:03;95908.88;;;7.40;100.00
39141;BME280;24875;48.436;10.298;2023-04-20T18:45:31;95905.06;;;7.51;100.00
39141;BME280;24875;48.436;10.298;2023-04-20T18:47:57;95905.56;;;7.54;100.00
39141;BME280;24875;48.436;10.298;2023-04-20T18:50:24;95913.44;;;7.54;100.00
39141;BME280;24875;48.436;10.298;2023-04-20T18:52:50;95914.78;;;7.42;100.00
39141;BME280;24875;48.436;10.298;2023-04-20T18:55:16;95912.94;;;7.51;100.00
39141;BME280;24875;48.436;10.298;2023-04-20T18:57:43;95923.44;;;7.51;100.00
39141;BME280;24875;48.436;10.298;2023-04-20T19:00:10;95925.75;;;7.46;100.00
39141;BME280;24875;48.436;10.298;2023-04-20T19:02:38;95925.75;;;7.46;100.00
39141;BME280;24875;48.436;10.298;2023-04-20T19:05:06;95934.25;;;7.48;100.00
39141;BME280;24875;48.436;10.298;2023-04-20T19:07:33;95940.63;;;7.53;100.00
39141;BME280;24875;48.436;10.298;2023-04-20T19:09:59;95937.69;;;7.48;100.00
39141;BME280;24875;48.436;10.298;2023-04-20T19:12:26;95940.81;;;7.52;100.00
39141;BME280;24875;48.436;10.298;2023-04-20T19:14:52;95939.16;;;7.59;100.00
39141;BME280;24875;48.436;10.298;2023-04-20T19:17:19;95946.19;;;7.58;100.00
39141;BME280;24875;48.436;10.298;2023-04-20T19:19:46;95942.25;;;7.62;100.00
39141;BME280;24875;48.436;10.298;2023-04-20T19:22:15;95950.28;;;7.61;100.00
39141;BME280;24875;48.436;10.298;2023-04-20T19:24:41;95943.25;;;7.61;100.00
39141;BME280;24875;48.436;10.298;2023-04-20T19:27:07;95941.94;;;7.73;100.00
39141;BME280;24875;48.436;10.298;2023-04-20T19:29:34;95937.97;;;7.77;100.00
39141;BME280;24875;48.436;10.298;2023-04-20T19:32:01;95932.91;;;7.76;100.00
39141;BME280;24875;48.436;10.298;2023-04-20T19:34:27;95937.97;;;7.77;100.00
39141;BME280;24875;48.436;10.298;2023-04-20T19:36:55;95942.22;;;7.86;100.00
39141;BME280;24875;48.436;10.298;2023-04-20T19:39:21;95946.97;;;7.83;100.00
39141;BME280;24875;48.436;10.298;2023-04-20T19:41:48;95948.47;;;7.77;100.00
39141;BME280;24875;48.436;10.298;2023-04-20T19:44:15;95940.63;;;7.69;100.00
39141;BME280;24875;48.436;10.298;2023-04-20T19:46:41;95936.69;;;7.73;100.00
39141;BME280;24875;48.436;10.298;2023-04-20T19:49:08;95939.97;;;7.75;100.00
39141;BME280;24875;48.436;10.298;2023-04-20T19:51:35;95937.03;;;7.70;100.00
39141;BME280;24875;48.436;10.298;2023-04-20T19:54:03;95943.22;;;7.77;100.00
39141;BME280;24875;48.436;10.298;2023-04-20T19:56:30;95943.75;;;7.73;100.00
39141;BME280;24875;48.436;10.298;2023-04-20T19:58:56;95955.53;;;7.69;100.00
39141;BME280;24875;48.436;10.298;2023-04-20T20:01:22;95951.13;;;7.69;100.00
39141;BME280;24875;48.436;10.298;2023-04-20T20:03:49;95955.06;;;7.65;100.00
39141;BME280;24875;48.436;10.298;2023-04-20T20:06:16;95957.34;;;7.60;100.00
39141;BME280;24875;48.436;10.298;2023-04-20T20:08:43;95955.03;;;7.73;100.00
39141;BME280;24875;48.436;10.298;2023-04-20T20:11:11;95951.25;;;7.76;100.00
39141;BME280;24875;48.436;10.298;2023-04-20T20:13:38;95941.25;;;7.71;100.00
39141;BME280;24875;48.436;10.298;2023-04-20T20:16:05;95945.88;;;7.69;100.00
39141;BME280;24875;48.436;10.298;2023-04-20T20:18:31;95941.56;;;7.76;100.00
39141;BME280;24875;48.436;10.298;2023-04-20T20:20:57;95943.25;;;7.53;100.00
39141;BME280;24875;48.436;10.298;2023-04-20T20:23:24;95938.19;;;7.44;100.00
39141;BME280;24875;48.436;10.298;2023-04-20T20:25:50;95926.88;;;7.35;100.00
39141;BME280;24875;48.436;10.298;2023-04-20T20:28:18;95913.75;;;7.59;100.00